Stephen M. White — WCU6542 — position and weather

sailwx.info

Track history (hours):
 
Tides and Currents Weather Stations Pressure Air Temp Water Temp Dewpoint Dewpoint Depression Visibility Wind Speed Wind Dir Waves Ship Positions

Stephen M. White

Owner: LOS ANGELES, CITY OF, SAN PEDRO, CA. More information available from US FCC via Universal Licensing System and Coast Guard Vessel Documentation Center.

Last reported at 2017-Dec-03 07:53 UTC. Time now 2017-Dec-11 12:58 UTC.
Position N 33°43' W 118°15'.
Warning: this ship's position is 8 days out of date.

Length 13 m.

Type: Other ship. MMSI: 367049470.

Date/timePositionNaut miles runAvg speedWind from/ knotsBaromVisibWave heightAir tempDewpointWater temp
2017-Dec-03 07:53N 33°43' W 118°15'1 2.9
2017-Dec-03 07:25N 33°43' W 118°16'0 0.0
2017-Dec-02 19:11N 33°43' W 118°16'0 0.0
2017-Dec-02 18:59N 33°43' W 118°16'0 0.0
2017-Dec-02 06:15N 33°43' W 118°16'0 0.0
2017-Dec-02 05:52N 33°43' W 118°16'0 0.0
2017-Dec-02 00:31N 33°43' W 118°16'0 0.0
2017-Dec-02 00:22N 33°43' W 118°16'0 0.0
2017-Dec-02 00:00N 33°43' W 118°16'0 0.0
2017-Dec-01 23:30N 33°43' W 118°16'2 0.1
2017-Dec-01 04:14N 33°42' W 118°15'2 2.0
2017-Dec-01 03:20N 33°43' W 118°16'0 0.0
2017-Dec-01 03:00N 33°43' W 118°16'1 1.7
2017-Dec-01 02:26N 33°43' W 118°15'1 0.0
2017-Nov-30 01:06N 33°43' W 118°16'0 0.0
2017-Nov-29 23:32N 33°43' W 118°16'0 0.0
2017-Nov-29 23:27N 33°43' W 118°16'0 0.0
2017-Nov-29 19:51N 33°43' W 118°16'0 0.0
2017-Nov-29 19:29N 33°43' W 118°16'0 0.0
2017-Nov-29 19:00N 33°43' W 118°16'0 0.0
2017-Nov-29 03:31N 33°43' W 118°16'0 0.0
2017-Nov-29 03:29N 33°43' W 118°16'0 0.0
2017-Nov-29 00:54N 33°43' W 118°16'0 0.0
2017-Nov-29 00:30N 33°43' W 118°16'0 0.0
2017-Nov-29 00:00N 33°43' W 118°16'0 0.0
2017-Nov-28 23:30N 33°43' W 118°16'0 0.0
2017-Nov-28 22:59N 33°43' W 118°16'0 0.0
2017-Nov-28 22:10N 33°43' W 118°16'0 0.0
2017-Nov-28 20:09N 33°43' W 118°16'0 0.0
2017-Nov-28 17:39N 33°43' W 118°16'0 0.0
2017-Nov-28 17:30N 33°43' W 118°16'  
2017-Nov-26 02:27N 33°43' W 118°15'1 2.0
2017-Nov-26 01:56N 33°42' W 118°14'2 0.6
2017-Nov-25 21:59N 33°43' W 118°16'0 0.0
2017-Nov-25 21:30N 33°43' W 118°16'4 0.5
2017-Nov-25 13:17N 33°40' W 118°13'4 1.3
2017-Nov-25 10:06N 33°43' W 118°16'0 0.0
2017-Nov-25 09:43N 33°43' W 118°16'1 0.0
2017-Nov-24 14:34N 33°44' W 118°17'0 0.0
2017-Nov-24 14:28N 33°44' W 118°17'1 0.5
2017-Nov-24 13:29N 33°43' W 118°16'0 0.0
2017-Nov-24 12:31N 33°43' W 118°16'0 0.0
2017-Nov-24 12:29N 33°43' W 118°16'3 5.4
2017-Nov-24 11:58N 33°41' W 118°15'  
Track history (hours):
 
Tides and Currents Weather Stations Pressure Air Temp Water Temp Dewpoint Dewpoint Depression Visibility Wind Speed Wind Dir Waves Ship Positions

Stephen M. White

Owner: LOS ANGELES, CITY OF, SAN PEDRO, CA. More information available from US FCC via Universal Licensing System and Coast Guard Vessel Documentation Center.

Last reported at 2017-Dec-03 07:53 UTC. Time now 2017-Dec-11 12:58 UTC.
Position N 33°43' W 118°15'.
Warning: this ship's position is 8 days out of date.

Length 13 m.

Type: Other ship. MMSI: 367049470.

Date/timePositionNaut miles runAvg speedWind from/ knotsBaromVisibWave heightAir tempDewpointWater temp
2017-Dec-03 07:53N 33°43' W 118°15'1 2.9
2017-Dec-03 07:25N 33°43' W 118°16'0 0.0
2017-Dec-02 19:11N 33°43' W 118°16'0 0.0
2017-Dec-02 18:59N 33°43' W 118°16'0 0.0
2017-Dec-02 06:15N 33°43' W 118°16'0 0.0
2017-Dec-02 05:52N 33°43' W 118°16'0 0.0
2017-Dec-02 00:31N 33°43' W 118°16'0 0.0
2017-Dec-02 00:22N 33°43' W 118°16'0 0.0
2017-Dec-02 00:00N 33°43' W 118°16'0 0.0
2017-Dec-01 23:30N 33°43' W 118°16'2 0.1
2017-Dec-01 04:14N 33°42' W 118°15'2 2.0
2017-Dec-01 03:20N 33°43' W 118°16'0 0.0
2017-Dec-01 03:00N 33°43' W 118°16'1 1.7
2017-Dec-01 02:26N 33°43' W 118°15'1 0.0
2017-Nov-30 01:06N 33°43' W 118°16'0 0.0
2017-Nov-29 23:32N 33°43' W 118°16'0 0.0
2017-Nov-29 23:27N 33°43' W 118°16'0 0.0
2017-Nov-29 19:51N 33°43' W 118°16'0 0.0
2017-Nov-29 19:29N 33°43' W 118°16'0 0.0
2017-Nov-29 19:00N 33°43' W 118°16'0 0.0
2017-Nov-29 03:31N 33°43' W 118°16'0 0.0
2017-Nov-29 03:29N 33°43' W 118°16'0 0.0
2017-Nov-29 00:54N 33°43' W 118°16'0 0.0
2017-Nov-29 00:30N 33°43' W 118°16'0 0.0
2017-Nov-29 00:00N 33°43' W 118°16'0 0.0
2017-Nov-28 23:30N 33°43' W 118°16'0 0.0
2017-Nov-28 22:59N 33°43' W 118°16'0 0.0
2017-Nov-28 22:10N 33°43' W 118°16'0 0.0
2017-Nov-28 20:09N 33°43' W 118°16'0 0.0
2017-Nov-28 17:39N 33°43' W 118°16'0 0.0
2017-Nov-28 17:30N 33°43' W 118°16'  
2017-Nov-26 02:27N 33°43' W 118°15'1 2.0
2017-Nov-26 01:56N 33°42' W 118°14'2 0.6
2017-Nov-25 21:59N 33°43' W 118°16'0 0.0
2017-Nov-25 21:30N 33°43' W 118°16'4 0.5
2017-Nov-25 13:17N 33°40' W 118°13'4 1.3
2017-Nov-25 10:06N 33°43' W 118°16'0 0.0
2017-Nov-25 09:43N 33°43' W 118°16'1 0.0
2017-Nov-24 14:34N 33°44' W 118°17'0 0.0
2017-Nov-24 14:28N 33°44' W 118°17'1 0.5
2017-Nov-24 13:29N 33°43' W 118°16'0 0.0
2017-Nov-24 12:31N 33°43' W 118°16'0 0.0
2017-Nov-24 12:29N 33°43' W 118°16'3 5.4
2017-Nov-24 11:58N 33°41' W 118°15'  

Dump ship's entire track history